Aviation Digital Data Service (ADDS)

Output produced by METARs form (2021 UTC 28 May 2017)
found at http://aviationweather.gov/adds/metars/
 
KALB 281723Z 2818/2918 15006KT P6SM SCT050 BKN080 BKN250 
     FM282100 16008KT P6SM BKN050 BKN080 
     FM290500 16008KT P6SM SCT025 OVC050 
     FM291000 17008KT 5SM -SHRA OVC025 
     FM291400 17008KT 4SM -SHRA OVC015